Time;durP1;ratioP1;P1;durP2;ratioP2;P2;SDS_P1;SDS_P2;PMS_P1;PMS_P2;Temp;Humidity;BMP_temperature;BMP_pressure;BME280_temperature;BME280_humidity;BME280_pressure;Samples;Min_cycle;Max_cycle;Signal;HPM_P1;HPM_P2
2022/12/22 03:26:13;;;;;;;15.70;14.00;;;;;;;8.42;100.00;100121.88;5027838;28;20052;-76
2022/12/22 03:28:38;;;;;;;19.33;14.45;;;;;;;8.44;100.00;100120.81;5028677;28;20029;-76
2022/12/22 03:31:05;;;;;;;16.83;14.77;;;;;;;8.42;100.00;100116.63;5028417;28;20143;-76
2022/12/22 03:33:31;;;;;;;15.60;14.10;;;;;;;8.42;100.00;100116.63;5027551;28;20083;-76
2022/12/22 03:35:57;;;;;;;183.63;24.80;;;;;;;8.39;100.00;100115.06;5025585;28;20022;-76
2022/12/22 03:38:23;;;;;;;85.28;16.88;;;;;;;8.39;100.00;100114.22;5028397;28;20039;-76
2022/12/22 03:40:52;;;;;;;167.02;19.88;;;;;;;8.39;100.00;100111.59;5028852;28;20025;-76
2022/12/22 03:48:42;;;;;;;25.63;11.90;;;;;;;8.39;100.00;100101.09;5027040;28;20052;-76
2022/12/22 03:51:08;;;;;;;19.38;14.20;;;;;;;8.36;100.00;100101.34;5030994;28;20390;-76
2022/12/22 03:53:33;;;;;;;16.63;14.00;;;;;;;8.34;100.00;100103.25;5031400;28;20029;-76
2022/12/22 03:55:58;;;;;;;16.98;13.52;;;;;;;8.32;100.00;100098.09;5031302;28;20113;-76
2022/12/22 03:58:24;;;;;;;18.77;14.63;;;;;;;8.31;100.00;100100.84;5031618;28;20125;-76
2022/12/22 04:00:50;;;;;;;18.10;12.07;;;;;;;8.30;100.00;100096.53;5032259;28;20095;-76
2022/12/22 04:03:16;;;;;;;16.95;15.25;;;;;;;8.35;100.00;100087.41;5032092;28;20033;-79
2022/12/22 04:05:41;;;;;;;21.35;16.92;;;;;;;8.31;100.00;100087.72;5031139;28;20212;-76
2022/12/22 04:08:07;;;;;;;21.13;15.93;;;;;;;8.28;100.00;100087.97;5015114;28;20013;-76
2022/12/22 04:13:17;;;;;;;15.52;12.93;;;;;;;8.23;100.00;100093.56;5033190;28;20060;-76
2022/12/22 04:15:42;;;;;;;15.45;13.85;;;;;;;8.21;100.00;100087.59;5031806;28;20033;-76
2022/12/22 04:18:08;;;;;;;14.43;12.93;;;;;;;8.20;100.00;100087.72;5033386;28;20025;-77
2022/12/22 04:20:33;;;;;;;15.15;13.55;;;;;;;8.18;100.00;100091.31;5032181;28;20448;-76
2022/12/22 04:22:59;;;;;;;18.15;13.90;;;;;;;8.20;100.00;100090.34;5033023;28;20022;-76
2022/12/22 04:25:26;;;;;;;28.42;15.52;;;;;;;8.16;100.00;100085.34;5032205;28;20037;-76
2022/12/22 04:27:51;;;;;;;16.63;14.43;;;;;;;8.17;100.00;100084.38;5013673;28;20037;-76
2022/12/22 04:30:17;;;;;;;16.63;14.23;;;;;;;8.17;100.00;100097.50;5010728;28;20030;-76
2022/12/22 04:32:42;;;;;;;17.38;13.90;;;;;;;8.20;100.00;100104.28;5030006;28;20497;-76
2022/12/22 04:35:09;;;;;;;15.90;12.68;;;;;;;8.20;100.00;100100.81;5031994;28;20035;-77
2022/12/22 04:37:34;;;;;;;15.75;13.70;;;;;;;8.20;100.00;100096.41;5030625;28;20044;-76
2022/12/22 04:40:00;;;;;;;14.82;13.00;;;;;;;8.21;100.00;100102.50;5014718;28;20451;-76
2022/12/22 04:42:26;;;;;;;16.38;13.25;;;;;;;8.20;100.00;100106.91;5012871;28;20033;-76
2022/12/22 04:44:51;;;;;;;16.17;12.48;;;;;;;8.20;100.00;100106.91;5027894;28;20025;-76
2022/12/22 04:47:17;;;;;;;27.02;15.23;;;;;;;8.21;100.00;100105.13;5026897;28;20449;-76
2022/12/22 04:49:42;;;;;;;30.27;14.63;;;;;;;8.18;100.00;100109.63;5030637;28;20061;-76
2022/12/22 04:52:07;;;;;;;19.92;13.40;;;;;;;8.19;100.00;100107.84;5031737;28;20477;-76
2022/12/22 04:54:34;;;;;;;17.17;13.55;;;;;;;8.17;100.00;100107.97;5031866;28;20108;-76
2022/12/22 04:56:59;;;;;;;41.30;15.15;;;;;;;8.19;100.00;100100.00;5028726;28;20037;-76
2022/12/22 04:59:25;;;;;;;178.00;23.50;;;;;;;8.20;100.00;100095.59;5030064;28;20032;-76
2022/12/22 05:01:50;;;;;;;57.20;15.55;;;;;;;8.23;100.00;100100.59;5029375;28;20033;-76
2022/12/22 05:04:16;;;;;;;38.67;12.88;;;;;;;8.20;100.00;100090.34;5013861;28;20536;-76
2022/12/22 05:06:41;;;;;;;16.17;14.48;;;;;;;8.21;100.00;100087.59;5031457;28;20032;-76
2022/12/22 05:09:07;;;;;;;29.25;16.40;;;;;;;8.17;100.00;100097.50;5026344;28;20462;-76
2022/12/22 05:11:32;;;;;;;22.10;14.85;;;;;;;8.15;100.00;100099.41;5028219;28;20033;-76
2022/12/22 05:13:57;;;;;;;15.15;13.55;;;;;;;8.16;100.00;100092.38;5032596;28;20025;-76
2022/12/22 05:16:23;;;;;;;22.77;14.90;;;;;;;8.14;100.00;100091.66;5013838;28;20124;-76
2022/12/22 05:18:55;;;;;;;16.08;13.07;;;;;;;8.12;100.00;100102.25;5014300;28;20025;-76
2022/12/22 05:21:22;;;;;;;15.10;12.17;;;;;;;8.09;100.00;100107.72;5031999;28;20025;-76
2022/12/22 05:23:59;;;;;;;19.60;12.77;;;;;;;8.07;100.00;100107.00;5025948;28;20375;-76
2022/12/22 05:26:24;;;;;;;21.20;12.75;;;;;;;8.02;100.00;100117.00;5016179;28;20469;-76
2022/12/22 05:28:51;;;;;;;15.27;12.55;;;;;;;7.99;100.00;100119.00;5012218;28;20053;-76
2022/12/22 05:31:21;;;;;;;13.93;11.40;;;;;;;8.00;100.00;100118.03;5026026;28;20053;-76
2022/12/22 05:33:51;;;;;;;30.50;12.20;;;;;;;8.00;100.00;100116.25;5030053;28;20029;-77
2022/12/22 05:36:17;;;;;;;127.95;17.83;;;;;;;7.97;100.00;100110.41;5030958;28;20029;-77
2022/12/22 05:38:43;;;;;;;84.28;14.45;;;;;;;7.97;100.00;100119.09;5030238;28;20065;-77
2022/12/22 05:41:09;;;;;;;81.35;13.18;;;;;;;7.95;100.00;100123.63;5029994;28;20113;-77
2022/12/22 05:43:35;;;;;;;53.47;12.32;;;;;;;7.97;100.00;100126.13;5006511;28;20053;-77
2022/12/22 05:46:06;;;;;;;39.60;11.15;;;;;;;7.98;100.00;100127.78;5011277;28;20054;-77
2022/12/22 05:48:32;;;;;;;110.78;15.82;;;;;;;7.96;100.00;100120.06;5029071;28;20493;-76
2022/12/22 05:50:57;;;;;;;70.40;12.02;;;;;;;7.98;100.00;100128.63;5031054;28;20032;-77
2022/12/22 05:53:22;;;;;;;80.70;13.43;;;;;;;7.96;100.00;100130.53;5008620;28;20076;-77
2022/12/22 05:55:56;;;;;;;18.88;10.68;;;;;;;7.99;100.00;100139.94;5010516;28;20037;-77
2022/12/22 05:58:25;;;;;;;143.20;17.42;;;;;;;8.00;100.00;100147.69;5018547;28;20972;-77
2022/12/22 06:00:50;;;;;;;49.13;12.45;;;;;;;8.03;100.00;100157.97;5028036;28;20025;-77
2022/12/22 06:03:16;;;;;;;46.70;13.57;;;;;;;8.04;100.00;100164.88;5029449;28;20037;-77
2022/12/22 06:05:41;;;;;;;215.35;23.50;;;;;;;8.03;100.00;100173.69;5011918;28;20026;-77
2022/12/22 06:08:09;;;;;;;159.32;20.90;;;;;;;8.01;100.00;100178.19;5029889;28;20037;-77
2022/12/22 06:10:35;;;;;;;199.02;24.92;;;;;;;8.02;100.00;100177.25;5027103;28;20061;-77
2022/12/22 06:13:00;;;;;;;159.35;23.83;;;;;;;8.03;100.00;100181.53;5007565;28;20597;-76
2022/12/22 06:15:26;;;;;;;188.00;26.27;;;;;;;8.02;100.00;100187.72;5005125;28;20578;-77
2022/12/22 06:17:51;;;;;;;26.17;15.77;;;;;;;8.03;100.00;100188.56;5010602;28;20029;-77
2022/12/22 06:20:16;;;;;;;60.40;19.90;;;;;;;8.04;100.00;100193.69;5015034;28;20064;-77
2022/12/22 06:22:45;;;;;;;69.70;22.90;;;;;;;8.05;100.00;100200.59;4992641;28;20038;-77
2022/12/22 06:25:11;;;;;;;27.85;18.83;;;;;;;8.07;100.00;100205.72;5024121;28;20025;-77
2022/12/22 06:27:36;;;;;;;49.60;22.10;;;;;;;8.04;100.00;100209.41;5008296;28;20466;-77
2022/12/22 06:30:05;;;;;;;33.53;21.65;;;;;;;8.09;100.00;100212.53;5027565;28;20088;-77
2022/12/22 06:32:30;;;;;;;35.88;23.77;;;;;;;8.12;100.00;100214.06;5010441;28;20042;-77
2022/12/22 06:35:22;;;;;;;40.63;27.40;;;;;;;8.15;100.00;100212.06;5016373;28;20036;-77
2022/12/22 06:37:48;;;;;;;54.60;30.98;;;;;;;8.17;100.00;100218.03;5029654;28;20463;-77
2022/12/22 06:40:13;;;;;;;64.72;33.65;;;;;;;8.17;100.00;100228.50;5030238;28;20104;-78
2022/12/22 06:45:22;;;;;;;65.75;34.53;;;;;;;8.27;100.00;100233.06;5028922;28;20259;-77
2022/12/22 06:47:47;;;;;;;69.65;35.88;;;;;;;8.26;100.00;100231.38;5022029;28;20112;-78
2022/12/22 06:50:13;;;;;;;71.00;35.22;;;;;;;8.27;100.00;100243.53;5015480;28;20120;-78
2022/12/22 06:52:38;;;;;;;79.78;35.35;;;;;;;8.27;100.00;100249.63;5011695;28;20036;-78
2022/12/22 06:55:04;;;;;;;80.97;35.90;;;;;;;8.31;100.00;100252.84;5011390;28;20028;-79
2022/12/22 06:57:33;;;;;;;81.32;36.63;;;;;;;8.31;100.00;100253.69;5012009;28;20040;-78
2022/12/22 06:59:58;;;;;;;80.55;34.90;;;;;;;8.28;100.00;100260.94;5030301;28;20466;-78
2022/12/22 07:02:27;;;;;;;76.75;35.20;;;;;;;8.30;100.00;100269.53;5028926;28;20109;-77
2022/12/22 07:04:52;;;;;;;75.00;34.30;;;;;;;8.30;100.00;100264.28;5022830;28;20026;-78
2022/12/22 07:07:17;;;;;;;69.13;32.88;;;;;;;8.31;100.00;100276.44;5010995;28;20057;-78
2022/12/22 07:09:43;;;;;;;64.95;33.67;;;;;;;8.30;100.00;100286.09;5025770;28;20029;-78
2022/12/22 07:12:08;;;;;;;65.78;33.85;;;;;;;8.31;100.00;100281.69;5010832;28;20486;-78
2022/12/22 07:14:38;;;;;;;61.40;32.58;;;;;;;8.28;100.00;100293.22;5023867;28;20029;-78
2022/12/22 07:17:03;;;;;;;65.47;34.20;;;;;;;8.25;100.00;100296.06;5029155;28;20107;-78
2022/12/22 07:19:28;;;;;;;60.00;33.50;;;;;;;8.27;100.00;100295.97;5010560;28;20080;-78
2022/12/22 07:21:54;;;;;;;62.47;33.60;;;;;;;8.26;100.00;100289.03;5024172;28;20021;-77
2022/12/22 07:24:23;;;;;;;65.07;35.17;;;;;;;8.25;100.00;100295.25;5024890;28;20037;-79
2022/12/22 07:26:49;;;;;;;64.15;33.83;;;;;;;8.22;100.00;100298.91;5031832;28;20033;-78
2022/12/22 07:29:15;;;;;;;63.83;34.15;;;;;;;8.19;100.00;100291.28;5033949;28;20036;-78
2022/12/22 07:31:49;;;;;;;61.78;33.25;;;;;;;8.14;100.00;100299.47;5033034;28;20520;-78
2022/12/22 07:34:17;;;;;;;56.33;32.33;;;;;;;8.10;100.00;100294.59;5032181;28;20030;-78
2022/12/22 07:37:01;;;;;;;60.38;33.78;;;;;;;8.08;100.00;100299.94;5033720;28;20034;-78
2022/12/22 07:39:26;;;;;;;60.92;33.85;;;;;;;8.04;100.00;100308.13;5031986;28;20128;-78
2022/12/22 07:44:35;;;;;;;66.45;34.55;;;;;;;8.02;100.00;100318.72;5032722;28;20095;-78
2022/12/22 07:47:01;;;;;;;66.78;35.35;;;;;;;8.00;100.00;100328.44;5015017;28;20108;-79
2022/12/22 07:52:10;;;;;;;71.88;37.38;;;;;;;8.04;100.00;100334.31;5033478;28;20059;-79
2022/12/22 07:54:35;;;;;;;73.10;37.97;;;;;;;8.02;100.00;100344.91;5031760;28;20022;-79
2022/12/22 07:57:01;;;;;;;73.55;37.65;;;;;;;8.03;100.00;100357.06;5033054;28;20025;-79
2022/12/22 07:59:26;;;;;;;75.25;38.13;;;;;;;8.03;100.00;100364.94;5015147;28;20132;-79
2022/12/22 08:01:55;;;;;;;79.50;39.40;;;;;;;8.00;100.00;100388.69;5027424;28;20018;-78
2022/12/22 08:04:26;;;;;;;77.85;39.78;;;;;;;8.03;100.00;100390.28;5025735;28;20033;-78
2022/12/22 08:06:52;;;;;;;83.75;40.72;;;;;;;7.99;100.00;100392.25;5016516;28;20083;-78
2022/12/22 08:09:37;;;;;;;81.95;41.83;;;;;;;8.07;100.00;100397.81;5032881;28;20025;-78
2022/12/22 08:12:13;;;;;;;80.88;39.85;;;;;;;7.99;100.00;100405.34;5013739;28;20029;-79
2022/12/22 08:14:44;;;;;;;78.85;39.42;;;;;;;7.97;100.00;100402.00;5031646;28;20302;-79
2022/12/22 08:17:12;;;;;;;75.15;37.83;;;;;;;8.01;100.00;100408.75;5014924;28;20018;-79
2022/12/22 08:19:38;;;;;;;76.78;39.25;;;;;;;8.04;100.00;100403.28;5031646;28;20468;-79
2022/12/22 08:22:14;;;;;;;81.95;40.47;;;;;;;8.06;100.00;100408.41;5032133;28;20029;-79
2022/12/22 08:24:39;;;;;;;82.22;40.28;;;;;;;8.02;100.00;100413.03;5033069;28;20029;-79
2022/12/22 08:27:10;;;;;;;72.80;39.05;;;;;;;8.04;100.00;100415.53;5032680;28;20033;-79
2022/12/22 08:29:48;;;;;;;71.25;36.72;;;;;;;8.03;100.00;100414.69;5032688;28;20132;-79
2022/12/22 08:32:13;;;;;;;65.18;35.00;;;;;;;8.03;100.00;100417.31;5032168;28;20734;-79
2022/12/22 08:34:39;;;;;;;61.95;34.00;;;;;;;8.02;100.00;100431.38;5032230;28;20033;-79
2022/12/22 08:37:17;;;;;;;63.50;33.40;;;;;;;7.99;100.00;100431.56;5025378;28;20061;-79
2022/12/22 08:39:47;;;;;;;56.20;32.63;;;;;;;7.95;100.00;100448.44;5022441;28;20184;-79
2022/12/22 08:42:26;;;;;;;55.78;33.50;;;;;;;7.97;100.00;100464.88;5023495;28;20030;-79
2022/12/22 08:44:52;;;;;;;62.28;34.03;;;;;;;7.96;100.00;100465.81;4994601;28;20026;-79
2022/12/22 08:47:21;;;;;;;61.47;34.58;;;;;;;8.03;100.00;100476.75;5009415;28;20032;-79
2022/12/22 08:49:48;;;;;;;64.53;37.00;;;;;;;8.03;100.00;100488.06;5031420;28;20021;-79
2022/12/22 08:52:35;;;;;;;64.57;37.30;;;;;;;8.10;100.00;100499.78;5007746;28;20014;-79
2022/12/22 08:55:04;;;;;;;68.10;36.13;;;;;;;8.06;100.00;100510.59;5028407;28;20037;-79
2022/12/22 08:57:41;;;;;;;68.13;37.83;;;;;;;8.03;100.00;100488.06;5030370;28;20064;-79
2022/12/22 09:01:11;;;;;;;60.42;34.55;;;;;;;8.05;100.00;100491.41;5030850;28;21054;-79
2022/12/22 09:04:03;;;;;;;62.70;35.20;;;;;;;7.99;100.00;100506.69;4946012;28;20646;-79
2022/12/22 09:06:32;;;;;;;60.88;33.70;;;;;;;7.83;100.00;100510.38;5017496;28;20037;-79
2022/12/22 09:08:59;;;;;;;60.58;34.45;;;;;;;7.83;100.00;100517.38;5031346;28;20104;-79
2022/12/22 09:11:27;;;;;;;58.40;34.03;;;;;;;7.73;100.00;100511.94;5026992;28;20018;-78
2022/12/22 09:14:01;;;;;;;59.10;34.60;;;;;;;7.68;100.00;100507.97;5028536;28;20492;-78
2022/12/22 09:16:32;;;;;;;57.22;33.42;;;;;;;7.66;100.00;100515.06;5029742;28;20412;-78
2022/12/22 09:18:57;;;;;;;62.28;34.53;;;;;;;7.62;100.00;100511.00;5029163;28;20013;-78
2022/12/22 09:21:24;;;;;;;59.83;34.53;;;;;;;7.56;100.00;100517.44;5028537;28;20544;-78
2022/12/22 09:23:49;;;;;;;61.20;34.88;;;;;;;7.51;100.00;100511.69;5029572;28;20037;-78
2022/12/22 09:26:17;;;;;;;59.80;33.97;;;;;;;7.52;100.00;100522.06;5007341;28;20024;-78
2022/12/22 09:28:45;;;;;;;67.68;36.15;;;;;;;7.48;100.00;100528.44;5019120;28;20151;-78
2022/12/22 09:31:11;;;;;;;68.22;37.85;;;;;;;7.50;100.00;100531.78;5031848;28;20132;-78
2022/12/22 09:34:01;;;;;;;65.80;37.55;;;;;;;7.51;100.00;100528.22;5030308;28;20026;-78
2022/12/22 09:36:30;;;;;;;69.07;38.60;;;;;;;7.57;100.00;100532.22;5028113;28;20064;-78
2022/12/22 09:38:56;;;;;;;72.15;39.60;;;;;;;7.69;100.00;100530.59;5030821;28;20093;-78
2022/12/22 09:41:56;;;;;;;74.72;40.90;;;;;;;7.82;100.00;100536.66;5030657;28;20080;-78
2022/12/22 09:44:27;;;;;;;67.78;39.00;;;;;;;7.85;100.00;100533.84;5030826;28;20041;-77
2022/12/22 09:46:54;;;;;;;67.38;39.50;;;;;;;7.83;100.00;100554.06;5013369;28;20029;-78
2022/12/22 09:49:31;;;;;;;65.45;39.22;;;;;;;7.83;100.00;100556.66;5012735;28;20040;-78
2022/12/22 09:52:00;;;;;;;64.72;40.08;;;;;;;7.81;100.00;100551.53;5031181;28;20124;-78
2022/12/22 09:54:26;;;;;;;62.47;37.92;;;;;;;7.73;100.00;100558.25;5028333;28;20039;-78
2022/12/22 09:56:52;;;;;;;65.95;40.65;;;;;;;7.79;100.00;100552.59;5013924;28;20053;-78
2022/12/22 09:59:20;;;;;;;66.47;39.60;;;;;;;7.80;100.00;100560.34;5025252;28;20496;-78
2022/12/22 10:02:22;;;;;;;62.15;38.40;;;;;;;7.87;100.00;100558.13;5030292;28;20866;-78
2022/12/22 10:05:29;;;;;;;65.53;36.80;;;;;;;7.94;100.00;100567.25;5030409;28;20049;-77
2022/12/22 10:08:00;;;;;;;63.20;35.72;;;;;;;8.02;100.00;100570.22;5001496;28;20645;-78
2022/12/22 10:10:34;;;;;;;55.95;34.42;;;;;;;8.09;100.00;100570.63;5027567;28;20110;-76
2022/12/22 10:13:04;;;;;;;50.83;32.20;;;;;;;8.10;100.00;100578.41;5001956;28;20111;-77
2022/12/22 10:15:40;;;;;;;49.20;28.75;;;;;;;8.07;100.00;100583.84;5029798;28;20029;-77
2022/12/22 10:18:26;;;;;;;46.50;27.33;;;;;;;8.08;100.00;100588.16;5019239;28;20029;-77
2022/12/22 10:21:03;;;;;;;40.85;24.75;;;;;;;8.07;100.00;100583.84;5013655;28;20474;-77
2022/12/22 10:23:29;;;;;;;42.17;24.65;;;;;;;8.01;100.00;100584.25;5029849;28;20033;-77
2022/12/22 10:25:54;;;;;;;42.75;25.10;;;;;;;8.02;100.00;100578.09;5030618;28;20034;-77
2022/12/22 10:28:32;;;;;;;42.83;24.42;;;;;;;8.02;100.00;100578.09;5027455;28;20426;-78
2022/12/22 10:31:25;;;;;;;42.03;24.38;;;;;;;8.05;100.00;100577.88;5029252;28;20068;-77
2022/12/22 10:34:15;;;;;;;39.28;22.77;;;;;;;7.97;100.00;100582.75;5017850;28;20037;-77
2022/12/22 10:36:49;;;;;;;40.72;21.85;;;;;;;7.99;100.00;100586.13;5011436;28;20025;-77
2022/12/22 10:39:30;;;;;;;36.83;21.98;;;;;;;8.02;100.00;100595.59;5030447;28;20104;-77
2022/12/22 10:42:00;;;;;;;34.38;21.27;;;;;;;7.99;100.00;100591.38;5013146;28;20393;-77
2022/12/22 10:44:33;;;;;;;37.00;22.60;;;;;;;7.98;100.00;100591.47;5010604;28;20176;-78
2022/12/22 10:47:32;;;;;;;35.13;22.20;;;;;;;8.06;100.00;100589.19;5026262;28;20047;-77
2022/12/22 10:49:58;;;;;;;35.83;21.85;;;;;;;8.05;100.00;100590.97;4991042;28;20490;-77
2022/12/22 10:52:30;;;;;;;39.08;22.08;;;;;;;8.02;100.00;100591.19;5029716;28;20509;-77
2022/12/22 10:55:16;;;;;;;39.05;22.73;;;;;;;8.08;100.00;100601.25;5028849;28;20064;-77
2022/12/22 10:58:20;;;;;;;34.83;22.30;;;;;;;8.05;100.00;100605.84;5026913;28;20029;-77
2022/12/22 11:01:09;;;;;;;38.63;22.38;;;;;;;8.10;100.00;100609.84;4988110;28;20041;-76
2022/12/22 11:03:34;;;;;;;33.30;20.45;;;;;;;8.10;100.00;100599.34;5023199;28;20056;-77
2022/12/22 11:05:59;;;;;;;34.55;20.08;;;;;;;8.12;100.00;100610.56;5029603;28;20052;-78
2022/12/22 11:08:40;;;;;;;30.90;19.00;;;;;;;8.12;100.00;100609.75;5027854;28;20477;-80
2022/12/22 11:12:08;;;;;;;30.52;19.35;;;;;;;8.21;100.00;100616.13;5009679;28;20027;-77
2022/12/22 11:14:51;;;;;;;32.20;19.55;;;;;;;8.23;100.00;100614.25;4984451;28;20045;-78
2022/12/22 11:17:32;;;;;;;;;;;;;;;8.29;100.00;100614.66;5020778;28;20033;-77
2022/12/22 11:20:20;;;;;;;39.17;27.83;;;;;;;8.17;100.00;100616.34;5027617;28;19943;-77
2022/12/22 11:23:05;;;;;;;40.30;28.35;;;;;;;8.14;100.00;100606.06;5027849;28;20029;-77
2022/12/22 11:25:41;;;;;;;43.33;29.35;;;;;;;8.11;100.00;100619.38;5027597;28;20033;-77
2022/12/22 11:28:54;;;;;;;42.47;28.50;;;;;;;8.09;100.00;100621.25;5029249;28;20076;-77
2022/12/22 11:31:52;;;;;;;41.40;30.33;;;;;;;8.13;100.00;100614.88;4977407;28;20046;-77
2022/12/22 11:34:55;;;;;;;40.05;29.27;;;;;;;8.23;100.00;100624.72;4974710;28;20084;-77
2022/12/22 11:37:55;;;;;;;38.97;29.02;;;;;;;8.29;100.00;100629.56;5025473;28;20071;-77
2022/12/22 11:40:38;;;;;;;43.20;29.98;;;;;;;8.24;100.00;100631.66;5013379;28;20045;-77
2022/12/22 11:43:23;;;;;;;40.08;29.08;;;;;;;8.27;100.00;100627.03;5029178;28;20112;-77
2022/12/22 11:46:00;;;;;;;42.47;30.77;;;;;;;8.28;100.00;100627.88;5029309;28;20018;-76
2022/12/22 11:48:41;;;;;;;41.30;30.25;;;;;;;8.39;100.00;100633.25;5028610;28;20076;-76
2022/12/22 11:51:26;;;;;;;43.42;31.02;;;;;;;8.48;100.00;100635.25;5028234;28;20028;-75
2022/12/22 11:54:08;;;;;;;41.85;30.20;;;;;;;8.51;100.00;100628.97;5005659;28;20045;-79
2022/12/22 11:56:43;;;;;;;42.10;30.63;;;;;;;8.59;100.00;100635.34;5020598;28;20050;-79
2022/12/22 11:59:40;;;;;;;36.67;26.92;;;;;;;8.65;100.00;100628.84;5029419;28;20036;-79
2022/12/22 12:02:42;;;;;;;35.05;26.17;;;;;;;8.63;100.00;100617.63;5013580;28;20041;-79
2022/12/22 12:05:18;;;;;;;32.67;24.58;;;;;;;8.59;100.00;100619.63;5007835;28;20045;-79
2022/12/22 12:07:56;;;;;;;31.83;22.90;;;;;;;8.56;100.00;100622.47;5007075;28;20033;-79
2022/12/22 12:10:30;;;;;;;27.40;20.00;;;;;;;8.46;100.00;100619.63;5010802;28;20402;-77
2022/12/22 12:13:12;;;;;;;30.00;20.60;;;;;;;8.43;100.00;100616.38;5030675;28;20040;-77
2022/12/22 12:15:46;;;;;;;26.67;20.80;;;;;;;8.43;100.00;100603.28;5028424;28;20022;-78
2022/12/22 12:18:39;;;;;;;31.52;21.42;;;;;;;8.47;100.00;100602.97;5014789;28;20930;-77
2022/12/22 12:21:41;;;;;;;26.55;20.02;;;;;;;8.53;100.00;100595.63;5027276;28;20493;-77
2022/12/22 12:24:35;;;;;;;25.85;20.25;;;;;;;8.53;100.00;100593.81;5032404;28;20017;-77
2022/12/22 12:27:20;;;;;;;24.35;19.52;;;;;;;8.58;100.00;100583.00;5012216;28;20104;-77
2022/12/22 12:30:10;;;;;;;24.63;18.38;;;;;;;8.60;100.00;100586.38;5016329;28;20029;-77
2022/12/22 12:32:35;;;;;;;24.00;17.92;;;;;;;8.59;100.00;100579.44;5024588;28;20189;-77
2022/12/22 12:35:26;;;;;;;22.73;18.42;;;;;;;8.62;100.00;100574.00;5012775;28;20116;-76
2022/12/22 12:38:01;;;;;;;22.38;17.80;;;;;;;8.64;100.00;100572.94;5029680;28;20396;-76
2022/12/22 12:40:26;;;;;;;22.70;17.65;;;;;;;8.64;100.00;100572.09;5031490;28;20026;-76
2022/12/22 12:42:53;;;;;;;25.08;18.92;;;;;;;8.62;100.00;100569.56;5028541;28;20056;-77
2022/12/22 12:45:36;;;;;;;25.10;19.02;;;;;;;8.62;100.00;100582.69;5014348;28;20116;-77
2022/12/22 12:48:20;;;;;;;25.08;18.50;;;;;;;8.60;100.00;100576.72;5024603;28;20033;-76
2022/12/22 12:50:56;;;;;;;24.35;18.98;;;;;;;8.54;100.00;100574.53;5021626;28;20044;-76
2022/12/22 12:53:26;;;;;;;27.10;19.50;;;;;;;8.51;100.00;100572.13;5011280;28;20122;-76
2022/12/22 12:55:54;;;;;;;27.95;20.70;;;;;;;8.51;100.00;100580.00;5013172;28;20064;-76
2022/12/22 12:58:43;;;;;;;28.30;20.88;;;;;;;8.60;100.00;100571.47;5014341;28;20124;-76
2022/12/22 13:01:18;;;;;;;27.80;21.15;;;;;;;8.61;100.00;100565.28;4996420;28;20037;-77
2022/12/22 13:03:45;;;;;;;30.27;21.75;;;;;;;8.73;100.00;100577.53;5014069;28;20120;-77
2022/12/22 13:06:47;;;;;;;27.33;22.15;;;;;;;8.87;100.00;100571.31;5012121;28;20022;-77
2022/12/22 13:09:23;;;;;;;28.60;22.15;;;;;;;8.91;100.00;100575.41;5031168;28;20494;-77
2022/12/22 13:11:49;;;;;;;30.35;23.13;;;;;;;8.88;100.00;100573.00;5032008;28;20033;-77
2022/12/22 13:14:52;;;;;;;29.25;23.75;;;;;;;8.91;100.00;100579.81;5032417;28;20021;-77
2022/12/22 13:17:39;;;;;;;28.90;22.85;;;;;;;8.80;100.00;100583.16;5012613;28;20033;-77
2022/12/22 13:20:11;;;;;;;27.73;23.75;;;;;;;8.69;100.00;100578.69;5006805;28;20441;-77
2022/12/22 13:22:37;;;;;;;33.80;23.52;;;;;;;8.62;100.00;100571.38;5031058;28;20029;-77
2022/12/22 13:25:12;;;;;;;25.17;20.00;;;;;;;8.55;100.00;100584.06;5031625;28;20557;-77
2022/12/22 13:27:37;;;;;;;24.08;19.10;;;;;;;8.47;100.00;100581.16;5031991;28;20033;-76
2022/12/22 13:30:03;;;;;;;25.83;19.88;;;;;;;8.46;100.00;100579.47;5031626;28;20078;-77
2022/12/22 13:32:34;;;;;;;20.20;15.95;;;;;;;8.42;100.00;100573.59;5013437;28;20444;-77
2022/12/22 13:35:12;;;;;;;19.40;15.73;;;;;;;8.45;100.00;100572.56;5031732;28;20478;-76
2022/12/22 13:37:45;;;;;;;22.17;15.25;;;;;;;8.43;100.00;100563.97;5031421;28;20034;-77
2022/12/22 13:40:12;;;;;;;18.63;15.07;;;;;;;8.41;100.00;100560.59;5030088;28;20032;-76
2022/12/22 13:42:46;;;;;;;18.92;15.02;;;;;;;8.45;100.00;100554.19;5013010;28;20447;-77
2022/12/22 13:45:48;;;;;;;18.05;14.65;;;;;;;8.50;100.00;100549.47;5012245;28;20029;-77
2022/12/22 13:48:21;;;;;;;16.83;13.63;;;;;;;8.45;100.00;100546.34;4953437;28;20458;-76
2022/12/22 13:50:55;;;;;;;15.70;13.98;;;;;;;8.46;100.00;100540.97;5010208;28;20042;-76
2022/12/22 13:53:40;;;;;;;16.48;14.00;;;;;;;8.48;100.00;100546.13;5029991;28;20029;-77
2022/12/22 13:56:11;;;;;;;17.85;13.95;;;;;;;8.44;100.00;100536.78;5030428;28;20021;-77
2022/12/22 13:58:57;;;;;;;19.65;14.55;;;;;;;8.44;100.00;100536.78;5030410;28;20022;-76
2022/12/22 14:01:23;;;;;;;19.30;15.40;;;;;;;8.40;100.00;100527.44;5014790;28;20044;-76
2022/12/22 14:04:00;;;;;;;17.33;15.05;;;;;;;8.39;100.00;100531.84;5011084;28;20057;-76
2022/12/22 14:06:25;;;;;;;18.42;14.63;;;;;;;8.35;100.00;100525.16;5009929;28;20025;-78
2022/12/22 14:08:51;;;;;;;17.00;14.65;;;;;;;8.32;100.00;100516.63;5010948;28;20084;-76
2022/12/22 14:11:16;;;;;;;17.63;14.48;;;;;;;8.29;100.00;100529.94;4992884;28;20025;-76
2022/12/22 14:13:43;;;;;;;20.55;14.25;;;;;;;8.26;100.00;100517.91;5010673;28;20029;-76
2022/12/22 14:16:12;;;;;;;18.80;14.52;;;;;;;8.26;100.00;100524.91;4993784;28;20030;-76
2022/12/22 14:18:38;;;;;;;17.00;13.82;;;;;;;8.25;100.00;100516.22;5015308;28;20029;-76
2022/12/22 14:21:04;;;;;;;17.48;14.35;;;;;;;8.23;100.00;100517.28;5010904;28;20022;-76
2022/12/22 14:23:36;;;;;;;16.10;13.90;;;;;;;8.19;100.00;100500.94;5011590;28;20080;-76
2022/12/22 14:26:04;;;;;;;15.15;13.13;;;;;;;8.17;100.00;100506.28;5011910;28;20109;-76
2022/12/22 14:28:40;;;;;;;19.92;12.80;;;;;;;8.15;100.00;100494.22;5009991;28;20029;-76
2022/12/22 14:31:06;;;;;;;14.75;13.07;;;;;;;8.16;100.00;100504.59;4993617;28;20048;-76
2022/12/22 14:33:33;;;;;;;15.85;13.43;;;;;;;8.12;100.00;100492.66;5014718;28;20026;-77
2022/12/22 14:36:22;;;;;;;17.05;13.40;;;;;;;8.14;100.00;100487.31;5010408;28;20125;-77
2022/12/22 14:38:53;;;;;;;17.77;13.68;;;;;;;8.07;100.00;100489.53;5031246;28;20458;-76
2022/12/22 14:41:40;;;;;;;16.92;13.93;;;;;;;8.06;100.00;100485.22;5029719;28;20033;-75
2022/12/22 14:44:13;;;;;;;15.05;13.52;;;;;;;8.03;100.00;100477.59;5030577;28;20482;-76
2022/12/22 14:46:39;;;;;;;19.27;13.98;;;;;;;8.02;100.00;100470.66;5029252;28;20443;-75
2022/12/22 14:49:10;;;;;;;16.58;13.77;;;;;;;7.99;100.00;100470.00;5018457;28;20032;-76
2022/12/22 14:51:36;;;;;;;18.30;14.32;;;;;;;7.97;100.00;100475.34;5014933;28;20087;-76
2022/12/22 14:54:01;;;;;;;15.70;13.93;;;;;;;7.96;100.00;100475.47;5027373;28;20037;-76
2022/12/22 14:56:27;;;;;;;15.07;13.57;;;;;;;7.92;100.00;100469.59;5028600;28;20025;-76
2022/12/22 14:59:21;;;;;;;19.60;14.25;;;;;;;7.92;100.00;100472.22;5008628;28;20072;-77
2022/12/22 15:02:15;;;;;;;17.35;13.63;;;;;;;7.91;100.00;100461.84;5015263;28;20603;-76
2022/12/22 15:04:41;;;;;;;16.98;13.40;;;;;;;7.82;100.00;100469.41;5029039;28;20025;-75
2022/12/22 15:07:16;;;;;;;18.50;13.55;;;;;;;7.82;100.00;100463.31;5029852;28;20124;-75
2022/12/22 15:09:42;;;;;;;15.75;13.80;;;;;;;7.79;100.00;100466.16;5029047;28;20033;-75
2022/12/22 15:12:14;;;;;;;16.20;14.15;;;;;;;7.80;100.00;100454.75;5029925;28;20035;-77
2022/12/22 15:14:40;;;;;;;16.25;13.90;;;;;;;7.78;100.00;100451.38;5030055;28;20083;-77
2022/12/22 15:17:21;;;;;;;16.98;14.18;;;;;;;7.75;100.00;100451.59;5021149;28;20509;-77